Time;durP1;ratioP1;P1;durP2;ratioP2;P2;SDS_P1;SDS_P2;PMS_P1;PMS_P2;Temp;Humidity;BMP_temperature;BMP_pressure;BME280_temperature;BME280_humidity;BME280_pressure;Samples;Min_cycle;Max_cycle;Signal;HPM_P1;HPM_P2
2023/09/15 00:00:25;;;;;;;17.23;13.02;;;;;;;13.69;100.00;101993.50;5018275;28;20054;-91
2023/09/15 00:02:55;;;;;;;19.92;12.88;;;;;;;13.66;100.00;101989.22;4981933;28;20070;-91
2023/09/15 00:05:21;;;;;;;18.38;12.73;;;;;;;13.68;100.00;101992.66;4990896;28;20043;-91
2023/09/15 00:07:48;;;;;;;24.02;13.70;;;;;;;13.67;100.00;101984.72;5015185;28;20101;-91
2023/09/15 00:10:14;;;;;;;15.82;12.43;;;;;;;13.67;100.00;101984.72;4998079;28;20049;-91
2023/09/15 00:12:45;;;;;;;19.27;12.35;;;;;;;13.63;100.00;101986.69;5015253;28;20459;-91
2023/09/15 00:15:12;;;;;;;20.35;13.68;;;;;;;13.53;100.00;101990.00;5013903;28;20044;-91
2023/09/15 00:17:43;;;;;;;20.85;13.05;;;;;;;13.54;100.00;101983.69;4999814;28;20070;-91
2023/09/15 00:20:22;;;;;;;24.42;12.63;;;;;;;13.50;100.00;101985.66;5035295;28;20045;-91
2023/09/15 00:22:49;;;;;;;19.63;11.50;;;;;;;13.49;100.00;101983.94;5035067;28;20072;-90
2023/09/15 00:25:19;;;;;;;20.05;12.73;;;;;;;13.47;100.00;101985.84;5035116;28;20038;-90
2023/09/15 00:27:50;;;;;;;18.92;12.02;;;;;;;13.46;100.00;101981.47;5025306;28;20069;-91
2023/09/15 00:30:17;;;;;;;19.35;12.40;;;;;;;13.41;100.00;101983.53;5003315;28;20049;-91
2023/09/15 00:32:45;;;;;;;18.80;12.18;;;;;;;13.37;100.00;101980.16;5016096;28;20038;-91
2023/09/15 00:35:13;;;;;;;12.85;10.35;;;;;;;13.45;100.00;101985.06;5021907;28;20124;-90
2023/09/15 00:37:38;;;;;;;20.35;11.27;;;;;;;13.40;100.00;101980.00;5029701;28;20458;-90
2023/09/15 00:40:06;;;;;;;20.08;11.55;;;;;;;13.40;100.00;101982.66;5008965;28;20049;-89
2023/09/15 00:42:33;;;;;;;15.07;11.55;;;;;;;13.38;100.00;101978.34;5039560;28;20055;-91
2023/09/15 00:45:04;;;;;;;20.35;11.35;;;;;;;13.38;100.00;101976.50;5010141;28;20081;-91
2023/09/15 00:47:31;;;;;;;17.05;11.60;;;;;;;13.36;100.00;101974.91;5009897;28;20041;-90
2023/09/15 00:49:58;;;;;;;17.42;10.85;;;;;;;13.36;100.00;101970.41;5044075;28;20026;-91
2023/09/15 00:52:27;;;;;;;21.05;12.20;;;;;;;13.28;100.00;101974.44;5010269;28;20030;-91
2023/09/15 00:54:55;;;;;;;20.38;11.38;;;;;;;13.28;100.00;101971.78;5024146;28;20131;-91
2023/09/15 00:57:25;;;;;;;17.60;11.68;;;;;;;13.27;100.00;101970.06;5028780;28;20036;-90
2023/09/15 00:59:51;;;;;;;26.83;11.10;;;;;;;13.21;100.00;101965.88;5061003;28;20052;-91
2023/09/15 01:02:17;;;;;;;15.90;11.30;;;;;;;13.21;100.00;101965.88;5037293;28;20479;-91
2023/09/15 01:04:43;;;;;;;28.92;11.98;;;;;;;13.19;100.00;101968.63;5005042;28;20183;-91
2023/09/15 01:07:09;;;;;;;16.70;10.93;;;;;;;13.19;100.00;101962.41;5021709;28;20794;-91
2023/09/15 01:09:39;;;;;;;16.35;10.93;;;;;;;13.17;100.00;101961.63;5013893;28;20038;-90
2023/09/15 01:12:07;;;;;;;16.35;11.32;;;;;;;13.06;100.00;101967.59;5021722;28;20027;-90
2023/09/15 01:14:34;;;;;;;16.95;10.95;;;;;;;13.04;100.00;101956.09;5022438;28;20037;-91
2023/09/15 01:17:10;;;;;;;19.70;10.63;;;;;;;13.12;100.00;101945.81;5022560;28;20064;-90
2023/09/15 01:20:09;;;;;;;21.08;10.68;;;;;;;13.12;100.00;101947.63;5021482;28;20050;-90
2023/09/15 01:22:47;;;;;;;16.85;11.25;;;;;;;13.11;100.00;101936.06;4997625;28;20049;-91
2023/09/15 01:25:22;;;;;;;19.23;9.88;;;;;;;13.07;100.00;101939.88;5004957;28;20026;-91
2023/09/15 01:28:06;;;;;;;22.92;11.00;;;;;;;13.02;100.00;101938.41;5004986;28;20038;-91
2023/09/15 01:30:32;;;;;;;19.25;10.63;;;;;;;13.03;100.00;101943.66;5039169;28;20074;-89
2023/09/15 01:33:01;;;;;;;20.27;10.45;;;;;;;13.07;100.00;101945.22;5017813;28;20488;-90
2023/09/15 01:35:26;;;;;;;17.60;11.00;;;;;;;13.06;100.00;101942.63;5035722;28;20030;-90
2023/09/15 01:37:52;;;;;;;16.58;9.93;;;;;;;13.04;100.00;101931.13;5050020;28;20042;-91
2023/09/15 01:40:18;;;;;;;18.70;10.05;;;;;;;13.01;100.00;101940.22;5024597;28;20049;-90
2023/09/15 01:42:44;;;;;;;21.00;10.25;;;;;;;13.01;100.00;101942.88;5006118;28;20037;-91
2023/09/15 01:45:10;;;;;;;15.00;10.63;;;;;;;12.95;100.00;101937.84;5039593;28;20030;-91
2023/09/15 01:47:40;;;;;;;17.30;11.07;;;;;;;12.86;100.00;101952.63;5002937;28;20431;-90
2023/09/15 01:50:09;;;;;;;23.63;11.02;;;;;;;12.85;100.00;101936.63;5002650;28;20214;-90
2023/09/15 01:52:36;;;;;;;16.30;10.30;;;;;;;12.79;100.00;101947.69;5019844;28;20030;-90
2023/09/15 01:55:04;;;;;;;18.90;10.68;;;;;;;12.71;100.00;101945.44;5018934;28;20034;-90
2023/09/15 01:57:30;;;;;;;18.92;9.23;;;;;;;12.73;100.00;101938.19;5003379;28;20077;-89
2023/09/15 01:59:58;;;;;;;21.25;10.40;;;;;;;12.75;100.00;101939.00;5018849;28;20476;-91
2023/09/15 02:02:24;;;;;;;19.92;10.43;;;;;;;12.75;100.00;101941.66;5019272;28;20034;-90
2023/09/15 02:04:50;;;;;;;17.95;10.10;;;;;;;12.69;100.00;101944.66;5001481;28;20131;-90
2023/09/15 02:07:15;;;;;;;18.05;10.15;;;;;;;12.67;100.00;101938.53;5019271;28;20142;-90
2023/09/15 02:09:41;;;;;;;15.60;10.85;;;;;;;12.66;100.00;101937.66;5018493;28;20037;-90
2023/09/15 02:12:07;;;;;;;16.02;9.20;;;;;;;12.56;100.00;101935.59;5038374;28;20503;-90
2023/09/15 02:14:34;;;;;;;17.50;11.18;;;;;;;12.57;100.00;101937.31;5026671;28;20034;-90
2023/09/15 02:17:01;;;;;;;16.73;10.52;;;;;;;12.49;100.00;101935.03;5001336;28;20035;-91
2023/09/15 02:19:29;;;;;;;15.98;9.95;;;;;;;12.50;100.00;101935.88;5007508;28;20047;-91
2023/09/15 02:21:55;;;;;;;20.50;11.27;;;;;;;12.49;100.00;101937.69;4998053;28;20058;-90
2023/09/15 02:24:20;;;;;;;20.50;11.00;;;;;;;12.43;100.00;101930.88;5000335;28;20038;-90
2023/09/15 02:26:46;;;;;;;16.77;10.25;;;;;;;12.41;100.00;101924.75;5006229;28;20106;-89
2023/09/15 02:29:13;;;;;;;16.08;10.48;;;;;;;12.40;100.00;101928.38;5010514;28;20057;-91
2023/09/15 02:31:40;;;;;;;28.60;11.60;;;;;;;12.40;100.00;101931.06;5015479;28;20034;-91
2023/09/15 02:34:06;;;;;;;17.05;10.55;;;;;;;12.38;100.00;101937.41;5019073;28;20034;-90
2023/09/15 02:36:31;;;;;;;17.13;9.60;;;;;;;12.32;100.00;101930.59;5027484;28;20038;-90
2023/09/15 02:38:57;;;;;;;17.42;10.07;;;;;;;12.29;100.00;101928.06;5022535;28;20042;-90
2023/09/15 02:41:22;;;;;;;19.58;11.40;;;;;;;12.23;100.00;101928.41;5004708;28;20062;-90
2023/09/15 02:43:48;;;;;;;17.15;9.73;;;;;;;12.26;100.00;101932.72;5020032;28;20034;-90
2023/09/15 02:46:14;;;;;;;14.13;9.70;;;;;;;12.19;100.00;101926.81;4999873;28;20018;-91
2023/09/15 02:48:44;;;;;;;17.80;9.75;;;;;;;12.17;100.00;101926.91;5006130;28;20049;-90
2023/09/15 02:51:09;;;;;;;14.90;9.05;;;;;;;12.18;100.00;101925.09;4991634;28;20058;-91
2023/09/15 02:53:36;;;;;;;19.17;9.90;;;;;;;12.14;100.00;101921.72;5015851;28;20027;-90
2023/09/15 02:56:04;;;;;;;17.77;9.80;;;;;;;12.15;100.00;101920.78;5017843;28;20052;-90
2023/09/15 02:58:33;;;;;;;17.77;9.05;;;;;;;12.13;100.00;101916.47;5017169;28;20165;-90
2023/09/15 03:00:58;;;;;;;18.00;10.10;;;;;;;12.13;100.00;101916.47;5016174;28;20046;-90
2023/09/15 03:03:24;;;;;;;17.35;9.13;;;;;;;12.09;100.00;101914.88;5016016;28;20040;-90
2023/09/15 03:06:02;;;;;;;17.70;9.50;;;;;;;12.02;100.00;101914.34;5015458;28;20042;-89
2023/09/15 03:08:29;;;;;;;17.73;10.55;;;;;;;11.96;100.00;101908.47;5014710;28;20030;-90
2023/09/15 03:10:56;;;;;;;15.32;10.13;;;;;;;11.95;100.00;101906.72;5014011;28;20030;-89
2023/09/15 03:13:22;;;;;;;15.15;10.45;;;;;;;11.92;100.00;101911.28;5014437;28;20049;-91
2023/09/15 03:15:48;;;;;;;15.20;10.10;;;;;;;11.94;100.00;101913.88;4996273;28;20477;-91
2023/09/15 03:18:13;;;;;;;14.88;10.65;;;;;;;11.92;100.00;101907.75;4990425;28;20090;-90
2023/09/15 03:20:40;;;;;;;22.17;11.75;;;;;;;11.90;100.00;101915.00;5005600;28;20051;-91
2023/09/15 03:23:07;;;;;;;14.77;10.73;;;;;;;11.89;100.00;101918.59;5005180;28;20046;-90
2023/09/15 03:25:32;;;;;;;14.65;11.13;;;;;;;11.87;100.00;101917.81;5018145;28;20118;-91
2023/09/15 03:27:58;;;;;;;22.95;11.50;;;;;;;11.88;100.00;101914.19;5000973;28;20480;-91
2023/09/15 03:30:27;;;;;;;17.55;11.45;;;;;;;11.88;100.00;101916.88;5002159;28;20034;-91
2023/09/15 03:32:53;;;;;;;18.15;12.57;;;;;;;11.85;100.00;101915.25;5002663;28;20106;-92
2023/09/15 03:35:20;;;;;;;18.52;12.50;;;;;;;11.81;100.00;101912.75;5001658;28;20033;-91
2023/09/15 03:37:46;;;;;;;19.35;11.77;;;;;;;11.81;100.00;101904.75;5002708;28;20042;-91
2023/09/15 03:40:12;;;;;;;19.60;13.32;;;;;;;11.74;100.00;101906.00;5003899;28;20038;-90
2023/09/15 03:42:39;;;;;;;21.35;12.20;;;;;;;11.76;100.00;101898.78;5003468;28;20037;-90
2023/09/15 03:45:09;;;;;;;20.00;12.80;;;;;;;11.73;100.00;101904.25;5003711;28;20046;-91
2023/09/15 03:47:35;;;;;;;23.25;12.30;;;;;;;11.62;100.00;101900.34;5018100;28;20049;-90
2023/09/15 03:50:02;;;;;;;19.17;12.05;;;;;;;11.62;100.00;101897.66;5001466;28;20057;-90
2023/09/15 03:52:31;;;;;;;18.40;12.88;;;;;;;11.61;100.00;101898.63;5017737;28;20042;-91
2023/09/15 03:55:00;;;;;;;22.85;13.75;;;;;;;11.56;100.00;101899.78;5017994;28;20396;-91
2023/09/15 03:57:28;;;;;;;24.35;13.10;;;;;;;11.57;100.00;101901.50;5000542;28;20033;-90
2023/09/15 03:59:56;;;;;;;23.40;13.85;;;;;;;11.52;100.00;101893.72;5016176;28;20053;-90
2023/09/15 04:02:22;;;;;;;22.95;13.18;;;;;;;11.49;100.00;101895.69;5018374;28;20041;-92
2023/09/15 04:04:48;;;;;;;21.33;12.93;;;;;;;11.50;100.00;101900.97;4998236;28;20132;-90
2023/09/15 04:07:14;;;;;;;17.73;12.07;;;;;;;11.53;100.00;101889.25;4999674;28;20042;-90
2023/09/15 04:09:41;;;;;;;23.90;14.90;;;;;;;11.51;100.00;101886.66;5015516;28;20615;-90
2023/09/15 04:12:07;;;;;;;22.38;12.40;;;;;;;11.43;100.00;101885.31;5019373;28;20037;-89
2023/09/15 04:14:34;;;;;;;20.08;12.40;;;;;;;11.39;100.00;101890.78;5019208;28;20128;-90
2023/09/15 04:17:03;;;;;;;20.30;13.45;;;;;;;11.44;100.00;101890.56;5018613;28;20038;-91
2023/09/15 04:19:30;;;;;;;23.58;12.30;;;;;;;11.35;100.00;101891.06;5018132;28;20929;-90
2023/09/15 04:21:59;;;;;;;19.70;12.07;;;;;;;11.33;100.00;101885.75;5017764;28;20117;-90
2023/09/15 04:24:25;;;;;;;22.33;12.88;;;;;;;11.30;100.00;101888.59;5000540;28;20035;-90
2023/09/15 04:26:50;;;;;;;22.52;12.20;;;;;;;11.38;100.00;101896.22;5001088;28;20387;-91
2023/09/15 04:29:16;;;;;;;25.25;14.65;;;;;;;11.35;100.00;101888.38;5017489;28;20485;-90
2023/09/15 04:31:42;;;;;;;15.18;11.85;;;;;;;11.28;100.00;101889.59;5016165;28;20046;-90
2023/09/15 04:34:07;;;;;;;25.02;13.50;;;;;;;11.21;100.00;101891.72;5013276;28;20399;-90
2023/09/15 04:36:33;;;;;;;17.23;12.45;;;;;;;11.18;100.00;101888.34;4998927;28;20046;-90
2023/09/15 04:38:59;;;;;;;19.88;13.27;;;;;;;11.09;100.00;101898.53;4997643;28;20115;-90
2023/09/15 04:41:25;;;;;;;25.73;15.18;;;;;;;11.14;100.00;101895.63;5017547;28;20496;-90
2023/09/15 04:43:51;;;;;;;22.10;14.07;;;;;;;11.18;100.00;101893.66;5019184;28;20480;-91
2023/09/15 04:46:18;;;;;;;22.15;13.18;;;;;;;11.10;100.00;101892.25;5017120;28;20026;-90
2023/09/15 04:48:44;;;;;;;19.58;13.02;;;;;;;11.06;100.00;101895.16;5001718;28;20034;-91
2023/09/15 04:51:11;;;;;;;26.98;14.48;;;;;;;11.09;100.00;101898.53;5002175;28;20042;-90
2023/09/15 04:53:37;;;;;;;21.90;13.27;;;;;;;11.08;100.00;101896.78;5018561;28;20041;-90
2023/09/15 04:56:03;;;;;;;23.58;12.75;;;;;;;11.06;100.00;101901.34;5019304;28;20058;-90
2023/09/15 04:58:29;;;;;;;23.55;14.27;;;;;;;11.10;100.00;101897.59;5002188;28;20096;-90
2023/09/15 05:00:59;;;;;;;23.75;13.35;;;;;;;11.12;100.00;101902.84;5018694;28;20038;-90
2023/09/15 05:03:26;;;;;;;25.40;14.32;;;;;;;11.07;100.00;101894.19;5003998;28;20033;-90
2023/09/15 05:05:52;;;;;;;25.90;14.73;;;;;;;11.05;100.00;101899.63;5021979;28;20030;-90
2023/09/15 05:08:19;;;;;;;22.73;13.93;;;;;;;11.06;100.00;101893.34;5020500;28;20141;-91
2023/09/15 05:10:48;;;;;;;22.20;13.35;;;;;;;11.07;100.00;101895.06;5000126;28;20401;-91
2023/09/15 05:13:15;;;;;;;21.60;13.80;;;;;;;11.03;100.00;101901.47;5016395;28;20113;-90
2023/09/15 05:15:43;;;;;;;21.30;13.23;;;;;;;11.09;100.00;101894.97;5005265;28;20034;-90
2023/09/15 05:18:09;;;;;;;19.25;13.30;;;;;;;11.09;100.00;101901.22;5003185;28;20077;-90
2023/09/15 05:20:34;;;;;;;23.58;13.45;;;;;;;11.19;100.00;101896.25;5022253;28;20065;-90
2023/09/15 05:23:02;;;;;;;24.98;13.10;;;;;;;11.18;100.00;101896.34;5003830;28;20097;-88
2023/09/15 05:25:27;;;;;;;25.20;15.10;;;;;;;11.21;100.00;101890.88;5005195;28;20026;-92
2023/09/15 05:27:55;;;;;;;24.92;15.10;;;;;;;11.24;100.00;101894.22;5020812;28;20106;-90
2023/09/15 05:30:21;;;;;;;21.77;13.00;;;;;;;11.27;100.00;101899.44;5019988;28;20042;-90
2023/09/15 05:32:47;;;;;;;24.67;13.88;;;;;;;11.31;100.00;101890.34;5019813;28;20034;-90
2023/09/15 05:35:13;;;;;;;22.83;13.85;;;;;;;11.33;100.00;101898.25;5020874;28;20035;-90
2023/09/15 05:37:39;;;;;;;26.17;13.77;;;;;;;11.46;100.00;101896.72;5003771;28;20043;-90
2023/09/15 05:40:06;;;;;;;23.92;14.48;;;;;;;11.54;100.00;101898.97;5023056;28;20046;-90
2023/09/15 05:42:32;;;;;;;29.48;13.85;;;;;;;11.57;100.00;101901.50;5024518;28;20046;-90
2023/09/15 05:44:59;;;;;;;22.58;14.05;;;;;;;11.62;100.00;101904.81;5022123;28;20151;-89
2023/09/15 05:47:30;;;;;;;22.35;13.07;;;;;;;11.70;100.00;101897.28;5006531;28;20026;-91
2023/09/15 05:50:00;;;;;;;25.48;14.18;;;;;;;11.76;100.00;101896.97;5019704;28;20752;-89
2023/09/15 05:52:27;;;;;;;21.95;13.52;;;;;;;11.81;100.00;101902.94;5024340;28;20050;-90
2023/09/15 05:54:52;;;;;;;24.98;13.48;;;;;;;11.86;100.00;101897.38;5024853;28;20093;-90
2023/09/15 05:57:18;;;;;;;23.58;13.43;;;;;;;11.98;100.00;101899.41;5024204;28;20480;-90
2023/09/15 05:59:43;;;;;;;23.63;13.38;;;;;;;12.02;100.00;101905.47;5007309;28;20043;-91
2023/09/15 06:02:09;;;;;;;21.00;14.63;;;;;;;12.10;100.00;101895.25;5006139;28;20025;-90
2023/09/15 06:04:35;;;;;;;21.80;13.65;;;;;;;12.19;100.00;101900.09;5023491;28;20038;-90
2023/09/15 06:07:00;;;;;;;25.17;14.43;;;;;;;12.26;100.00;101901.50;4997967;28;20043;-90
2023/09/15 06:09:26;;;;;;;27.02;13.75;;;;;;;12.30;100.00;101899.50;5006723;28;20035;-90
2023/09/15 06:11:52;;;;;;;23.45;13.82;;;;;;;12.37;100.00;101901.78;5036669;28;20129;-90
2023/09/15 06:14:18;;;;;;;23.65;14.10;;;;;;;12.45;100.00;101906.75;5009497;28;20050;-91
2023/09/15 06:16:46;;;;;;;21.27;13.57;;;;;;;12.54;100.00;101905.34;5025436;28;20038;-91
2023/09/15 06:19:12;;;;;;;20.45;12.85;;;;;;;12.63;100.00;101911.06;5003489;28;20055;-90
2023/09/15 06:21:38;;;;;;;22.23;14.27;;;;;;;12.68;100.00;101909.00;5004347;28;20042;-90
2023/09/15 06:24:04;;;;;;;21.63;13.55;;;;;;;12.75;100.00;101900.63;5021412;28;20061;-90
2023/09/15 06:26:30;;;;;;;19.77;12.50;;;;;;;12.86;100.00;101907.13;5003283;28;20054;-90
2023/09/15 06:28:56;;;;;;;21.05;14.02;;;;;;;12.89;100.00;101908.75;5015882;28;20038;-90
2023/09/15 06:31:22;;;;;;;19.77;12.20;;;;;;;13.01;100.00;101904.53;4994323;28;20077;-90
2023/09/15 06:33:48;;;;;;;20.02;13.32;;;;;;;13.06;100.00;101914.03;5019095;28;20089;-90
2023/09/15 06:36:15;;;;;;;24.65;12.98;;;;;;;13.20;100.00;101919.47;5002508;28;20119;-90
2023/09/15 06:38:41;;;;;;;20.40;12.68;;;;;;;13.38;100.00;101912.22;5019943;28;20038;-91
2023/09/15 06:41:07;;;;;;;18.10;12.90;;;;;;;13.58;100.00;101911.06;5019958;28;20434;-90
2023/09/15 06:43:36;;;;;;;20.55;13.05;;;;;;;13.71;100.00;101908.53;5003907;28;20562;-90
2023/09/15 06:46:02;;;;;;;21.83;13.57;;;;;;;13.74;100.00;101908.31;5005199;28;20031;-92
2023/09/15 06:48:28;;;;;;;22.65;12.85;;;;;;;13.90;100.00;101908.25;5003840;28;20081;-90
2023/09/15 06:50:53;;;;;;;26.98;13.00;;;;;;;14.11;100.00;101906.97;5019153;28;20073;-92
2023/09/15 06:53:22;;;;;;;18.23;12.45;;;;;;;14.22;100.00;101901.81;5000937;28;20042;-91
2023/09/15 06:55:49;;;;;;;24.08;12.77;;;;;;;14.34;100.00;101897.50;5017413;28;20030;-90
2023/09/15 06:58:15;;;;;;;22.65;12.20;;;;;;;14.31;100.00;101892.34;5001884;28;20182;-90
2023/09/15 07:00:40;;;;;;;22.05;12.05;;;;;;;14.51;100.00;101885.75;5017292;28;20089;-92
2023/09/15 07:03:06;;;;;;;19.75;11.60;;;;;;;14.71;100.00;101890.72;5013583;28;20125;-91
2023/09/15 07:05:32;;;;;;;26.13;12.48;;;;;;;14.86;100.00;101885.31;4996145;28;20112;-91
2023/09/15 07:07:58;;;;;;;17.10;11.98;;;;;;;14.95;100.00;101887.41;4995813;28;20043;-91
2023/09/15 07:10:25;;;;;;;15.73;10.98;;;;;;;15.14;100.00;101881.69;4995368;28;20042;-91
2023/09/15 07:12:51;;;;;;;19.63;11.35;;;;;;;15.31;100.00;101875.19;4995371;28;20471;-91
2023/09/15 07:15:20;;;;;;;18.02;11.02;;;;;;;15.45;100.00;101873.28;4995686;28;20064;-90
2023/09/15 07:17:45;;;;;;;23.42;11.68;;;;;;;15.68;100.00;101863.72;4995518;28;20827;-91
2023/09/15 07:20:11;;;;;;;17.90;12.05;;;;;;;15.66;100.00;101856.69;4994940;28;20057;-91
2023/09/15 07:22:37;;;;;;;16.63;10.57;;;;;;;15.75;100.00;101865.00;5003452;28;20168;-91
2023/09/15 07:25:03;;;;;;;24.13;12.02;;;;;;;15.87;100.00;101866.00;5017073;28;20034;-91
2023/09/15 07:27:28;;;;;;;17.02;10.07;;;;;;;15.96;100.00;101867.16;5015669;28;20030;-90
2023/09/15 07:29:57;;;;;;;18.10;10.00;;;;;;;16.40;100.00;101861.34;4994136;28;20038;-88
2023/09/15 07:32:23;;;;;;;22.40;10.88;;;;;;;16.61;100.00;101858.94;5002396;28;20078;-90
2023/09/15 07:34:49;;;;;;;18.42;10.57;;;;;;;16.73;100.00;101858.09;5012973;28;20045;-91
2023/09/15 07:37:15;;;;;;;15.65;9.82;;;;;;;16.79;100.00;101860.31;5012966;28;20443;-93
2023/09/15 07:39:41;;;;;;;15.57;10.20;;;;;;;16.93;100.00;101853.94;5011468;28;20046;-93
2023/09/15 07:42:08;;;;;;;18.42;10.45;;;;;;;17.09;100.00;101850.94;5014133;28;20114;-93
2023/09/15 07:44:34;;;;;;;13.98;10.38;;;;;;;17.26;100.00;101847.84;5011792;28;20037;-90
2023/09/15 07:47:00;;;;;;;19.92;10.43;;;;;;;17.42;100.00;101841.28;5008068;28;20137;-92
2023/09/15 07:49:26;;;;;;;18.38;10.50;;;;;;;17.74;100.00;101842.41;5012313;28;20110;-91
2023/09/15 07:51:52;;;;;;;16.27;9.55;;;;;;;17.92;100.00;101840.09;5013600;28;20084;-93
2023/09/15 07:54:19;;;;;;;18.10;9.45;;;;;;;18.49;98.78;101841.00;5017958;28;20034;-93
2023/09/15 07:56:44;;;;;;;22.88;9.57;;;;;;;18.88;97.86;101837.78;5016510;28;20830;-94
2023/09/15 07:59:10;;;;;;;16.70;9.07;;;;;;;19.02;90.88;101820.38;5000199;28;20484;-94
2023/09/15 08:01:36;;;;;;;17.52;8.75;;;;;;;19.24;89.95;101824.00;5016725;28;20480;-94
2023/09/15 08:04:02;;;;;;;17.75;9.45;;;;;;;19.59;90.52;101819.19;4999798;28;20566;-94
2023/09/15 08:06:28;;;;;;;22.00;9.27;;;;;;;19.15;90.53;101820.22;5017844;28;20042;-94
2023/09/15 08:08:58;;;;;;;14.75;8.60;;;;;;;18.26;96.20;101826.63;4986485;28;20027;-94
2023/09/15 08:11:23;;;;;;;15.93;8.30;;;;;;;17.93;100.00;101828.34;4980440;28;20137;-92
2023/09/15 08:13:50;;;;;;;14.73;7.97;;;;;;;17.60;100.00;101821.84;4991090;28;20043;-94
2023/09/15 08:16:15;;;;;;;14.25;7.78;;;;;;;17.40;100.00;101827.06;5008995;28;20030;-94
2023/09/15 08:18:41;;;;;;;13.02;7.90;;;;;;;17.40;100.00;101825.22;4999810;28;20050;-94
2023/09/15 08:21:07;;;;;;;18.90;7.88;;;;;;;17.32;100.00;101830.38;5007502;28;20058;-94
2023/09/15 08:23:34;;;;;;;15.10;7.75;;;;;;;17.33;100.00;101830.22;5018061;28;20049;-95
2023/09/15 08:26:01;;;;;;;22.75;8.20;;;;;;;17.32;100.00;101816.88;5001176;28;20030;-94
2023/09/15 08:28:27;;;;;;;12.88;7.40;;;;;;;17.44;100.00;101821.31;5017234;28;20121;-93
2023/09/15 08:30:52;;;;;;;14.18;7.60;;;;;;;17.44;100.00;101820.47;5000867;28;20094;-94
2023/09/15 08:33:19;;;;;;;14.55;7.43;;;;;;;17.43;100.00;101825.00;4991308;28;20473;-93
2023/09/15 08:35:45;;;;;;;15.52;7.95;;;;;;;17.25;100.00;101832.63;4981706;28;20031;-93
2023/09/15 08:38:12;;;;;;;18.30;8.25;;;;;;;17.18;100.00;101831.41;5010148;28;20034;-93
2023/09/15 08:40:48;;;;;;;15.45;8.52;;;;;;;17.35;100.00;101830.97;5003370;28;20102;-94
2023/09/15 08:43:17;;;;;;;16.20;8.05;;;;;;;17.42;100.00;101834.06;5021398;28;20034;-93
2023/09/15 08:45:48;;;;;;;16.88;8.80;;;;;;;17.40;100.00;101830.63;5005615;28;20030;-93
2023/09/15 08:48:18;;;;;;;16.90;7.93;;;;;;;17.50;100.00;101822.69;5021827;28;20102;-93
2023/09/15 08:50:44;;;;;;;16.75;9.10;;;;;;;17.34;100.00;101821.16;5020768;28;20023;-94
2023/09/15 08:53:11;;;;;;;18.40;9.18;;;;;;;17.73;100.00;101824.50;5015532;28;20037;-93
2023/09/15 08:55:37;;;;;;;19.15;10.15;;;;;;;17.88;100.00;101827.84;4986859;28;20039;-92
2023/09/15 08:58:04;;;;;;;19.42;9.52;;;;;;;17.94;100.00;101815.72;4989772;28;20063;-93
2023/09/15 09:00:32;;;;;;;20.80;9.52;;;;;;;18.13;100.00;101824.06;5005877;28;20094;-93
2023/09/15 09:02:59;;;;;;;13.60;8.95;;;;;;;18.15;100.00;101822.09;5019280;28;20255;-93
2023/09/15 09:05:36;;;;;;;13.70;8.52;;;;;;;18.31;100.00;101813.63;5007944;28;20058;-93
2023/09/15 09:08:03;;;;;;;20.35;7.95;;;;;;;18.33;100.00;101811.66;5006908;28;20045;-93
2023/09/15 09:10:32;;;;;;;14.48;8.73;;;;;;;18.29;100.00;101804.78;5023556;28;20066;-93
2023/09/15 09:12:58;;;;;;;16.13;8.90;;;;;;;18.51;100.00;101806.59;5006037;28;20042;-94
2023/09/15 09:15:27;;;;;;;15.98;8.15;;;;;;;18.32;99.03;101809.94;5005944;28;20035;-93
2023/09/15 09:17:52;;;;;;;17.73;6.88;;;;;;;18.60;99.51;101806.72;5021203;28;20046;-93
2023/09/15 09:20:26;;;;;;;17.20;7.45;;;;;;;18.57;100.00;101800.69;5010907;28;20091;-93
2023/09/15 09:22:53;;;;;;;15.13;7.50;;;;;;;18.63;100.00;101805.63;4998944;28;20035;-93
2023/09/15 09:25:27;;;;;;;11.75;7.72;;;;;;;18.68;100.00;101795.31;5005574;28;20038;-93
2023/09/15 09:27:55;;;;;;;15.82;8.40;;;;;;;18.69;100.00;101804.28;5024152;28;20065;-94
2023/09/15 09:30:30;;;;;;;14.38;6.85;;;;;;;18.84;100.00;101798.47;5026448;28;20031;-93
2023/09/15 09:32:56;;;;;;;13.43;7.45;;;;;;;18.85;99.84;101797.47;5026740;28;20038;-91
2023/09/15 09:35:23;;;;;;;17.83;7.50;;;;;;;19.05;100.00;101797.66;5026262;28;20487;-94
2023/09/15 09:37:53;;;;;;;13.65;7.35;;;;;;;19.22;100.00;101801.63;5025418;28;20081;-92
2023/09/15 09:40:23;;;;;;;11.43;7.05;;;;;;;19.06;94.98;101793.97;5024294;28;20038;-93
2023/09/15 09:42:49;;;;;;;13.18;6.95;;;;;;;19.11;94.31;101786.31;5005477;28;20121;-93
2023/09/15 09:45:16;;;;;;;12.23;6.97;;;;;;;19.13;95.93;101785.22;5020092;28;20045;-93
2023/09/15 09:47:45;;;;;;;15.32;7.22;;;;;;;19.22;92.24;101780.84;5019935;28;20062;-94
2023/09/15 09:50:11;;;;;;;15.15;6.30;;;;;;;19.36;93.12;101779.69;5019857;28;20045;-93
2023/09/15 09:52:39;;;;;;;13.80;6.18;;;;;;;19.37;92.70;101776.84;5002739;28;20052;-93
2023/09/15 09:55:08;;;;;;;12.65;5.95;;;;;;;19.37;90.07;101779.53;5019757;28;20042;-93
2023/09/15 09:57:33;;;;;;;11.23;5.72;;;;;;;19.42;90.34;101779.16;5020273;28;20046;-93
2023/09/15 09:59:59;;;;;;;9.20;6.03;;;;;;;19.27;85.88;101778.63;5005862;28;20049;-92
2023/09/15 10:02:26;;;;;;;11.48;6.03;;;;;;;19.31;84.30;101768.41;5023220;28;20047;-92
2023/09/15 10:04:53;;;;;;;14.30;6.40;;;;;;;19.61;87.89;101775.75;5005790;28;20045;-94
2023/09/15 10:07:19;;;;;;;14.07;6.10;;;;;;;19.73;86.49;101772.00;5022997;28;20224;-92
2023/09/15 10:09:46;;;;;;;13.88;6.55;;;;;;;19.87;86.62;101771.63;5020726;28;20139;-93
2023/09/15 10:12:13;;;;;;;14.50;6.68;;;;;;;19.59;84.17;101775.91;5003999;28;20141;-93
2023/09/15 10:14:40;;;;;;;13.20;5.88;;;;;;;19.87;83.66;101766.22;5003812;28;20041;-93
2023/09/15 10:17:09;;;;;;;10.55;5.70;;;;;;;19.85;84.51;101770.06;5019168;28;20045;-92
2023/09/15 10:19:36;;;;;;;12.50;5.68;;;;;;;19.99;88.27;101761.56;5020109;28;20054;-94
2023/09/15 10:22:02;;;;;;;8.70;5.65;;;;;;;19.97;83.67;101758.13;5003510;28;20073;-93
2023/09/15 10:24:29;;;;;;;12.10;5.53;;;;;;;20.15;86.03;101753.78;5004643;28;20042;-94
2023/09/15 10:26:55;;;;;;;8.43;6.00;;;;;;;20.36;84.28;101755.56;5001063;28;20026;-92
2023/09/15 10:29:21;;;;;;;12.90;6.00;;;;;;;20.17;79.91;101759.91;5004124;28;20035;-92
2023/09/15 10:31:47;;;;;;;9.65;5.60;;;;;;;20.20;82.03;101752.53;4998557;28;20034;-90
2023/09/15 10:34:16;;;;;;;17.80;5.78;;;;;;;19.98;78.75;101751.75;4999710;28;20464;-93
2023/09/15 10:36:44;;;;;;;11.05;5.60;;;;;;;19.91;78.65;101753.25;5002053;28;20033;-92
2023/09/15 10:39:17;;;;;;;11.77;5.13;;;;;;;20.16;80.16;101744.66;5020352;28;20026;-93
2023/09/15 10:41:44;;;;;;;11.15;5.60;;;;;;;20.18;80.82;101748.13;5018338;28;20045;-92
2023/09/15 10:44:11;;;;;;;12.30;6.10;;;;;;;20.19;79.42;101738.13;5018791;28;20042;-91
2023/09/15 10:46:42;;;;;;;10.30;5.25;;;;;;;20.34;80.25;101733.19;5019857;28;20107;-93
2023/09/15 10:49:18;;;;;;;9.93;6.35;;;;;;;20.20;79.12;101733.56;5018762;28;20034;-92
2023/09/15 10:51:52;;;;;;;8.65;5.43;;;;;;;20.11;78.78;101733.41;5020044;28;20050;-93
2023/09/15 10:54:19;;;;;;;11.18;6.05;;;;;;;20.32;77.71;101732.44;4997772;28;20477;-93
2023/09/15 10:56:48;;;;;;;13.05;6.43;;;;;;;20.42;79.34;101728.75;4997762;28;20026;-93
2023/09/15 10:59:16;;;;;;;10.27;6.68;;;;;;;20.47;78.10;101727.53;4998335;28;20031;-93
2023/09/15 11:01:46;;;;;;;13.48;6.18;;;;;;;20.61;79.13;101722.56;4982057;28;20039;-94
2023/09/15 11:04:13;;;;;;;11.20;6.53;;;;;;;20.56;80.41;101723.97;4982215;28;20034;-94
2023/09/15 11:06:40;;;;;;;9.65;6.18;;;;;;;20.54;81.04;101709.72;4983945;28;20031;-94